TTPP/POS METAR and TAF weather

Enter ICAO airport designator
Station Type Date Time Source
TTPP METAR 2019/12/07 15:00 UTC NOAA

TTPP 071500Z 11013KT 9999 BKN025 31/22 Q1013 NOSIG


Station Type Date Time Source
TTPP Decoded METAR 2019/12/07 15:00 UTC NOAA

Piarco International Airport, Trinidad, Trinidad and Tobago (TTPP) 10-37N 061-21W 15M
Dec 07, 2019 - 10:00 AM EST / 2019.12.07 1500 UTC
Wind: from the ESE (110 degrees) at 15 MPH (13 KT):0
Visibility: greater than 7 mile(s):0
Sky conditions: mostly cloudy
Temperature: 87 F (31 C)
Heat index: 92.3 F (33.5 C):1
Dew Point: 71 F (22 C)
Relative Humidity: 58%
Pressure (altimeter): 29.91 in. Hg (1013 hPa)
ob: TTPP 071500Z 11013KT 9999 BKN025 31/22 Q1013 NOSIG
cycle: 15

Station Type Date Time Source
TTPP TAF 2019/12/07 12:19 UTC NOAA

TAF TTPP 071000Z 0712/0812 08008KT 9999 SCT025 PROB40
TEMPO 0715/0722 6000 SHRA FEW012CB BKN015
BECMG 0800/0802 00000KT FEW016
TEMPO 0803/0809 7000 SHRA SCT015

Example: see airport list